createdAt,value
2019-05-05T00:00:35.133Z,99.99
2019-05-05T00:01:34.438Z,99.99
2019-05-05T00:02:34.254Z,99.99
2019-05-05T00:03:34.289Z,99.99
2019-05-05T00:04:34.754Z,99.99
2019-05-05T00:05:35.134Z,99.99
2019-05-05T00:06:34.268Z,99.99
2019-05-05T00:07:34.637Z,99.99
2019-05-05T00:08:32.715Z,99.99
2019-05-05T00:09:34.558Z,99.99
2019-05-05T00:10:34.635Z,99.99
2019-05-05T00:11:32.466Z,99.99
2019-05-05T00:12:34.245Z,99.99
2019-05-05T00:13:32.292Z,99.99
2019-05-05T00:14:32.219Z,99.99
2019-05-05T00:15:32.117Z,99.99
2019-05-05T00:16:32.043Z,99.99
2019-05-05T00:17:31.954Z,99.99
2019-05-05T00:18:31.867Z,99.99
2019-05-05T00:19:33.380Z,99.99
2019-05-05T00:20:31.706Z,99.99
2019-05-05T00:21:31.616Z,99.99
2019-05-05T00:22:31.529Z,99.99
2019-05-05T00:23:31.443Z,99.99
2019-05-05T00:24:31.355Z,99.99
2019-05-05T00:25:31.279Z,99.99
2019-05-05T00:26:31.198Z,99.99
2019-05-05T00:27:31.105Z,99.99
2019-05-05T00:28:31.019Z,99.99
2019-05-05T00:29:30.943Z,99.99
2019-05-05T00:30:30.858Z,99.99
2019-05-05T00:31:30.770Z,99.99
2019-05-05T00:32:30.682Z,99.99
2019-05-05T00:33:30.594Z,99.99
2019-05-05T00:34:30.519Z,99.99
2019-05-05T00:35:30.431Z,99.99
2019-05-05T00:36:30.344Z,99.99
2019-05-05T00:37:30.266Z,99.99
2019-05-05T00:38:30.169Z,99.99
2019-05-05T00:39:30.097Z,99.99
2019-05-05T00:40:30.008Z,99.99
2019-05-05T00:41:29.919Z,99.99
2019-05-05T00:42:29.832Z,99.99
2019-05-05T00:43:29.745Z,99.99
2019-05-05T00:44:29.669Z,99.99
2019-05-05T00:45:29.582Z,99.99
2019-05-05T00:46:29.495Z,99.99
2019-05-05T00:47:29.407Z,99.99
2019-05-05T00:48:29.334Z,99.99
2019-05-05T00:49:29.245Z,99.99
2019-05-05T00:50:29.170Z,99.99
2019-05-05T00:51:29.070Z,99.99
2019-05-05T00:52:28.983Z,99.99
2019-05-05T00:53:28.907Z,99.99
2019-05-05T00:54:28.821Z,99.99
2019-05-05T00:55:28.746Z,99.99
2019-05-05T00:56:28.646Z,99.99
2019-05-05T00:57:28.559Z,99.99
2019-05-05T00:58:28.483Z,99.99
2019-05-05T00:59:28.396Z,99.99
2019-05-05T01:00:28.308Z,99.99
2019-05-05T01:01:28.222Z,99.99
2019-05-05T01:02:28.134Z,99.99
2019-05-05T01:03:28.059Z,99.99
2019-05-05T01:04:27.972Z,99.99
2019-05-05T01:05:27.897Z,99.99
2019-05-05T01:06:27.803Z,99.99
2019-05-05T01:07:27.710Z,99.99
2019-05-05T01:08:27.634Z,99.99
2019-05-05T01:09:27.548Z,99.99
2019-05-05T01:10:27.460Z,99.99
2019-05-05T01:11:27.373Z,99.99
2019-05-05T01:12:27.298Z,99.99
2019-05-05T01:13:27.210Z,99.99
2019-05-05T01:14:27.123Z,99.99
2019-05-05T01:15:27.037Z,99.99
2019-05-05T01:16:26.949Z,99.99
2019-05-05T01:17:26.862Z,99.99
2019-05-05T01:18:26.785Z,99.99
2019-05-05T01:19:26.700Z,99.99
2019-05-05T01:20:26.610Z,99.99
2019-05-05T01:21:26.524Z,99.99
2019-05-05T01:22:26.437Z,99.99
2019-05-05T01:23:26.361Z,99.99
2019-05-05T01:24:26.274Z,99.99
2019-05-05T01:25:26.192Z,99.99
2019-05-05T01:26:26.099Z,99.99
2019-05-05T01:27:26.013Z,99.99
2019-05-05T01:28:25.944Z,99.99
2019-05-05T01:29:25.851Z,99.99
2019-05-05T01:30:25.763Z,99.99
2019-05-05T01:31:25.676Z,99.99
2019-05-05T01:32:25.600Z,99.99
2019-05-05T01:33:25.512Z,99.99
2019-05-05T01:34:25.427Z,99.99
2019-05-05T01:35:25.338Z,99.99
2019-05-05T01:36:25.253Z,99.99
2019-05-05T01:37:25.494Z,99.99
2019-05-05T01:38:25.088Z,99.99
2019-05-05T01:39:25.295Z,99.99
2019-05-05T01:40:24.917Z,99.99
2019-05-05T01:41:25.269Z,99.99
2019-05-05T01:42:24.876Z,99.99
2019-05-05T01:43:25.306Z,99.99
2019-05-05T01:44:24.742Z,99.99
2019-05-05T01:45:24.495Z,99.99
2019-05-05T01:46:24.638Z,99.99
2019-05-05T01:47:25.428Z,99.99
2019-05-05T01:48:24.777Z,99.99
2019-05-05T01:49:25.230Z,99.99
2019-05-05T01:50:24.860Z,99.99
2019-05-05T01:51:24.803Z,99.99
2019-05-05T01:52:25.475Z,99.99
2019-05-05T01:53:24.541Z,99.99
2019-05-05T01:54:24.983Z,99.99
2019-05-05T01:55:25.235Z,99.99
2019-05-05T01:56:24.717Z,99.99
2019-05-05T01:57:25.124Z,99.99
2019-05-05T01:58:24.436Z,99.99
2019-05-05T01:59:24.837Z,99.99
2019-05-05T02:00:25.210Z,99.99
2019-05-05T02:01:24.656Z,99.99
2019-05-05T02:02:24.921Z,99.99
2019-05-05T02:03:24.390Z,99.99
2019-05-05T02:04:24.433Z,99.99
2019-05-05T02:05:24.192Z,99.99
2019-05-05T02:06:24.701Z,99.99
2019-05-05T02:07:24.871Z,99.99
2019-05-05T02:08:24.307Z,99.99
2019-05-05T02:09:24.675Z,99.99
2019-05-05T02:10:22.366Z,99.99
2019-05-05T02:11:24.524Z,99.99
2019-05-05T02:12:22.192Z,99.99
2019-05-05T02:13:22.110Z,99.99
2019-05-05T02:14:22.017Z,99.99
2019-05-05T02:15:21.942Z,99.99
2019-05-05T02:16:21.856Z,99.99
2019-05-05T02:17:21.767Z,99.99
2019-05-05T02:18:21.681Z,99.99
2019-05-05T02:19:21.592Z,99.99
2019-05-05T02:20:28.832Z,99.99
2019-05-05T02:21:21.431Z,99.99
2019-05-05T02:22:21.343Z,99.99
2019-05-05T02:23:21.256Z,99.99
2019-05-05T02:24:21.181Z,99.99
2019-05-05T02:25:21.081Z,99.99
2019-05-05T02:26:20.994Z,99.99
2019-05-05T02:27:20.919Z,99.99
2019-05-05T02:28:20.831Z,99.99
2019-05-05T02:29:20.744Z,99.99
2019-05-05T02:30:20.658Z,99.99
2019-05-05T02:31:20.582Z,99.99
2019-05-05T02:32:20.498Z,99.99
2019-05-05T02:33:20.413Z,99.99
2019-05-05T02:34:20.320Z,99.99
2019-05-05T02:35:20.233Z,99.99
2019-05-05T02:36:20.144Z,99.99
2019-05-05T02:37:20.072Z,99.99
2019-05-05T02:38:19.971Z,99.99
2019-05-05T02:39:19.897Z,99.99
2019-05-05T02:40:19.809Z,99.99
2019-05-05T02:41:19.720Z,99.99
2019-05-05T02:42:19.638Z,99.99
2019-05-05T02:43:19.545Z,99.99
2019-05-05T02:44:19.471Z,99.99
2019-05-05T02:45:19.393Z,99.99
2019-05-05T02:46:19.297Z,99.99
2019-05-05T02:47:19.215Z,99.99
2019-05-05T02:48:19.125Z,99.99
2019-05-05T02:49:19.034Z,99.99
2019-05-05T02:50:18.966Z,99.99
2019-05-05T02:51:18.872Z,99.99
2019-05-05T02:52:18.788Z,99.99
2019-05-05T02:53:18.696Z,99.99
2019-05-05T02:54:18.611Z,99.99
2019-05-05T02:55:18.521Z,99.99
2019-05-05T02:56:18.438Z,99.99
2019-05-05T02:57:18.359Z,99.99
2019-05-05T02:58:18.273Z,99.99
2019-05-05T02:59:18.185Z,99.99
2019-05-05T03:00:18.099Z,99.99
2019-05-05T03:01:18.012Z,99.99
2019-05-05T03:02:17.927Z,99.99
2019-05-05T03:03:17.847Z,99.99
2019-05-05T03:04:17.767Z,99.99
2019-05-05T03:05:17.678Z,99.99
2019-05-05T03:06:17.588Z,99.99
2019-05-05T03:07:17.498Z,99.99
2019-05-05T03:08:17.411Z,99.99
2019-05-05T03:09:17.323Z,99.99
2019-05-05T03:10:17.248Z,99.99
2019-05-05T03:11:17.161Z,99.99
2019-05-05T03:12:17.087Z,99.99
2019-05-05T03:13:16.989Z,99.99
2019-05-05T03:14:16.898Z,99.99
2019-05-05T03:15:16.812Z,99.99
2019-05-05T03:16:16.725Z,99.99
2019-05-05T03:17:16.648Z,99.99
2019-05-05T03:18:16.562Z,99.99
2019-05-05T03:19:16.488Z,99.99
2019-05-05T03:20:16.388Z,99.99
2019-05-05T03:21:16.299Z,99.99
2019-05-05T03:22:16.213Z,99.99
2019-05-05T03:23:16.126Z,99.99
2019-05-05T03:24:16.049Z,99.99
2019-05-05T03:25:15.967Z,99.99
2019-05-05T03:26:15.887Z,99.99
2019-05-05T03:27:15.788Z,99.99
2019-05-05T03:28:15.703Z,99.99
2019-05-05T03:29:15.613Z,99.99
2019-05-05T03:30:15.668Z,99.99
2019-05-05T03:31:16.238Z,99.99
2019-05-05T03:32:16.283Z,99.99
2019-05-05T03:33:15.981Z,99.99
2019-05-05T03:34:16.426Z,99.99
2019-05-05T03:35:15.104Z,99.99
2019-05-05T03:36:15.014Z,99.99
2019-05-05T03:37:14.939Z,99.99
2019-05-05T03:38:14.851Z,99.99
2019-05-05T03:39:14.766Z,99.99
2019-05-05T03:40:14.885Z,99.99
2019-05-05T03:41:14.589Z,99.99
2019-05-05T03:42:14.502Z,99.99
2019-05-05T03:43:14.582Z,99.99
2019-05-05T03:44:14.339Z,99.99
2019-05-05T03:45:14.576Z,99.99
2019-05-05T03:46:14.166Z,99.99
2019-05-05T03:47:14.110Z,99.99
2019-05-05T03:48:13.990Z,99.99
2019-05-05T03:49:14.138Z,99.99
2019-05-05T03:50:14.427Z,99.99
2019-05-05T03:51:18.923Z,99.99
2019-05-05T03:52:13.910Z,99.99
2019-05-05T03:53:13.990Z,99.99
2019-05-05T03:54:14.648Z,99.99
2019-05-05T03:55:13.792Z,99.99
2019-05-05T03:56:14.052Z,99.99
2019-05-05T03:57:14.128Z,99.99
2019-05-05T03:58:14.635Z,99.99
2019-05-05T03:59:14.200Z,99.99
2019-05-05T04:00:14.277Z,99.99
2019-05-05T04:01:14.434Z,99.99
2019-05-05T04:02:14.178Z,99.99
2019-05-05T04:03:14.611Z,99.99
2019-05-05T04:04:13.897Z,99.99
2019-05-05T04:05:14.465Z,99.99
2019-05-05T04:06:14.565Z,99.99
2019-05-05T04:07:13.974Z,99.99
2019-05-05T04:08:14.372Z,99.99
2019-05-05T04:09:13.746Z,99.99
2019-05-05T04:10:13.918Z,99.99
2019-05-05T04:11:12.029Z,99.99
2019-05-05T04:12:13.572Z,99.99
2019-05-05T04:13:13.796Z,99.99
2019-05-05T04:14:11.769Z,99.99
2019-05-05T04:15:11.682Z,99.99
2019-05-05T04:16:13.492Z,99.99
2019-05-05T04:17:11.518Z,99.99
2019-05-05T04:18:11.431Z,99.99
2019-05-05T04:19:11.343Z,99.99
2019-05-05T04:20:11.256Z,99.99
2019-05-05T04:21:11.170Z,99.99
2019-05-05T04:22:11.081Z,99.99
2019-05-05T04:23:11.020Z,99.99
2019-05-05T04:24:10.923Z,99.99
2019-05-05T04:25:10.831Z,99.99
2019-05-05T04:26:10.746Z,99.99
2019-05-05T04:27:10.658Z,99.99
2019-05-05T04:28:10.569Z,99.99
2019-05-05T04:29:10.495Z,99.99
2019-05-05T04:30:10.409Z,99.99
2019-05-05T04:31:10.320Z,99.99
2019-05-05T04:32:10.234Z,99.99
2019-05-05T04:33:10.146Z,99.99
2019-05-05T04:34:10.058Z,99.99
2019-05-05T04:35:09.984Z,99.99
2019-05-05T04:36:09.898Z,99.99
2019-05-05T04:37:09.808Z,99.99
2019-05-05T04:38:09.720Z,99.99
2019-05-05T04:39:09.633Z,99.99
2019-05-05T04:40:09.558Z,99.99
2019-05-05T04:41:09.472Z,99.99
2019-05-05T04:42:09.388Z,99.99
2019-05-05T04:43:09.296Z,99.99
2019-05-05T04:44:09.209Z,99.99
2019-05-05T04:45:09.133Z,99.99
2019-05-05T04:46:09.047Z,99.99
2019-05-05T04:47:08.972Z,99.99
2019-05-05T04:48:08.873Z,99.99
2019-05-05T04:49:08.788Z,99.99
2019-05-05T04:50:08.711Z,99.99
2019-05-05T04:51:08.627Z,99.99
2019-05-05T04:52:08.547Z,99.99
2019-05-05T04:53:08.448Z,99.99
2019-05-05T04:54:08.361Z,99.91
2019-05-05T04:55:08.284Z,98.97
2019-05-05T04:56:08.197Z,98.59
2019-05-05T04:57:08.110Z,97.83
2019-05-05T04:58:08.035Z,97.36
2019-05-05T04:59:07.949Z,96.74
2019-05-05T05:00:07.860Z,96.74
2019-05-05T05:01:07.773Z,96.50
2019-05-05T05:02:07.699Z,96.55
2019-05-05T05:03:07.610Z,96.36
2019-05-05T05:04:07.532Z,95.60
2019-05-05T05:05:07.440Z,95.70
2019-05-05T05:06:07.362Z,95.89
2019-05-05T05:07:07.274Z,95.98
2019-05-05T05:08:07.187Z,95.89
2019-05-05T05:09:07.111Z,96.08
2019-05-05T05:10:07.025Z,96.55
2019-05-05T05:11:06.937Z,96.31
2019-05-05T05:12:06.850Z,96.50
2019-05-05T05:13:06.775Z,96.69
2019-05-05T05:14:06.687Z,97.26
2019-05-05T05:15:06.600Z,97.64
2019-05-05T05:16:06.534Z,97.26
2019-05-05T05:17:06.437Z,97.83
2019-05-05T05:18:06.353Z,98.11
2019-05-05T05:19:06.263Z,98.02
2019-05-05T05:20:06.193Z,98.02
2019-05-05T05:21:06.100Z,97.64
2019-05-05T05:22:06.019Z,98.21
2019-05-05T05:23:05.938Z,97.60
2019-05-05T05:24:05.851Z,96.64
2019-05-05T05:25:05.763Z,96.17
2019-05-05T05:26:05.688Z,96.17
2019-05-05T05:27:05.602Z,95.60
2019-05-05T05:28:05.526Z,95.51
2019-05-05T05:29:05.428Z,95.03
2019-05-05T05:30:05.352Z,94.93
2019-05-05T05:31:05.263Z,94.93
2019-05-05T05:32:05.178Z,95.51
2019-05-05T05:33:05.102Z,94.60
2019-05-05T05:34:05.028Z,94.42
2019-05-05T05:35:04.929Z,93.99
2019-05-05T05:36:04.854Z,95.03
2019-05-05T05:37:04.764Z,95.03
2019-05-05T05:38:04.786Z,95.79
2019-05-05T05:39:04.592Z,96.36
2019-05-05T05:40:04.527Z,96.45
2019-05-05T05:41:04.436Z,96.55
2019-05-05T05:42:04.625Z,96.74
2019-05-05T05:43:04.774Z,96.64
2019-05-05T05:44:04.178Z,96.55
2019-05-05T05:45:04.229Z,96.74
2019-05-05T05:46:04.375Z,96.74
2019-05-05T05:47:03.934Z,96.55
2019-05-05T05:48:04.185Z,96.55
2019-05-05T05:49:04.526Z,96.74
2019-05-05T05:50:04.002Z,96.26
2019-05-05T05:51:04.231Z,95.98
2019-05-05T05:52:13.474Z,96.26
2019-05-05T05:53:04.731Z,96.36
2019-05-05T05:54:03.742Z,96.36
2019-05-05T05:55:04.078Z,96.55
2019-05-05T05:56:04.306Z,96.64
2019-05-05T05:57:04.312Z,96.55
2019-05-05T05:58:04.687Z,96.36
2019-05-05T05:59:03.660Z,96.55
2019-05-05T06:00:04.073Z,96.55
2019-05-05T06:01:04.285Z,95.98
2019-05-05T06:02:11.538Z,95.70
2019-05-05T06:03:03.911Z,95.89
2019-05-05T06:04:04.033Z,94.93
2019-05-05T06:05:04.229Z,95.22
2019-05-05T06:06:04.504Z,95.79
2019-05-05T06:07:03.992Z,95.60
2019-05-05T06:08:02.168Z,95.79
2019-05-05T06:09:04.167Z,95.70
2019-05-05T06:10:03.777Z,95.70
2019-05-05T06:11:01.919Z,95.60
2019-05-05T06:12:03.453Z,96.17
2019-05-05T06:13:03.896Z,96.17
2019-05-05T06:14:03.835Z,96.26
2019-05-05T06:15:03.488Z,95.03
2019-05-05T06:16:01.507Z,94.56
2019-05-05T06:17:01.427Z,94.32
2019-05-05T06:18:01.344Z,94.79
2019-05-05T06:19:01.257Z,94.32
2019-05-05T06:20:01.169Z,94.32
2019-05-05T06:21:01.095Z,93.65
2019-05-05T06:22:01.007Z,93.65
2019-05-05T06:23:00.919Z,93.65
2019-05-05T06:24:00.845Z,94.60
2019-05-05T06:25:00.758Z,94.51
2019-05-05T06:26:00.671Z,93.94
2019-05-05T06:27:00.585Z,94.03
2019-05-05T06:28:00.509Z,93.46
2019-05-05T06:29:00.420Z,93.46
2019-05-05T06:30:00.338Z,93.51
2019-05-05T06:31:00.259Z,92.94
2019-05-05T06:32:00.171Z,92.51
2019-05-05T06:33:00.084Z,92.56
2019-05-05T06:34:00.009Z,92.66
2019-05-05T06:34:59.921Z,92.18
2019-05-05T06:35:59.835Z,92.32
2019-05-05T06:36:59.758Z,92.56
2019-05-05T06:37:59.673Z,92.18
2019-05-05T06:38:59.601Z,92.18
2019-05-05T06:39:59.509Z,92.37
2019-05-05T06:40:59.423Z,92.66
2019-05-05T06:41:59.346Z,92.46
2019-05-05T06:42:59.260Z,92.75
2019-05-05T06:43:59.173Z,91.89
2019-05-05T06:44:59.097Z,92.94
2019-05-05T06:45:59.010Z,91.61
2019-05-05T06:46:58.922Z,91.99
2019-05-05T06:47:58.848Z,91.42
2019-05-05T06:48:58.760Z,90.33
2019-05-05T06:49:58.676Z,90.42
2019-05-05T06:50:58.598Z,90.52
2019-05-05T06:51:58.512Z,89.33
2019-05-05T06:52:58.436Z,89.66
2019-05-05T06:53:58.348Z,89.28
2019-05-05T06:54:58.267Z,89.47
2019-05-05T06:55:58.187Z,89.37
2019-05-05T06:56:58.099Z,89.18
2019-05-05T06:57:58.013Z,88.90
2019-05-05T06:58:57.939Z,88.61
2019-05-05T06:59:57.849Z,88.04
2019-05-05T07:00:57.774Z,87.47
2019-05-05T07:01:57.688Z,88.37
2019-05-05T07:02:57.599Z,87.42
2019-05-05T07:03:57.524Z,87.80
2019-05-05T07:04:57.438Z,86.76
2019-05-05T07:05:57.362Z,86.28
2019-05-05T07:06:57.322Z,85.99
2019-05-05T07:07:57.189Z,85.80
2019-05-05T07:08:57.113Z,86.09
2019-05-05T07:09:57.025Z,86.18
2019-05-05T07:10:56.952Z,85.33
2019-05-05T07:11:56.863Z,85.33
2019-05-05T07:12:56.775Z,83.81
2019-05-05T07:13:56.700Z,84.47
2019-05-05T07:14:56.614Z,83.90
2019-05-05T07:15:56.527Z,84.19
2019-05-05T07:16:56.455Z,83.56
2019-05-05T07:17:56.365Z,83.33
2019-05-05T07:18:56.290Z,82.23
2019-05-05T07:19:56.201Z,82.32
2019-05-05T07:20:56.126Z,81.47
2019-05-05T07:21:56.040Z,80.55
2019-05-05T07:23:01.434Z,79.07
2019-05-05T07:23:55.876Z,78.64
2019-05-05T07:24:55.790Z,76.06
2019-05-05T07:25:55.714Z,74.96
2019-05-05T07:26:55.627Z,74.13
2019-05-05T07:27:55.552Z,71.23
2019-05-05T07:28:55.467Z,70.07
2019-05-05T07:29:55.379Z,68.86
2019-05-05T07:30:55.335Z,67.24
2019-05-05T07:31:55.227Z,67.36
2019-05-05T07:32:55.168Z,65.74
2019-05-05T07:33:55.065Z,65.58
2019-05-05T07:34:54.977Z,64.34
2019-05-05T07:36:00.223Z,62.59
2019-05-05T07:36:54.965Z,61.85
2019-05-05T07:37:54.746Z,60.71
2019-05-05T07:38:54.809Z,60.64
2019-05-05T07:39:54.581Z,60.58
2019-05-05T07:40:54.638Z,59.49
2019-05-05T07:41:54.418Z,60.01
2019-05-05T07:42:54.345Z,61.66
2019-05-05T07:43:54.315Z,62.37
2019-05-05T07:44:54.799Z,60.61
2019-05-05T07:45:54.129Z,59.37
2019-05-05T07:46:54.391Z,59.11
2019-05-05T07:47:54.312Z,58.56
2019-05-05T07:48:54.442Z,57.64
2019-05-05T07:49:53.794Z,55.91
2019-05-05T07:51:01.891Z,54.67
2019-05-05T07:51:54.723Z,54.03
2019-05-05T07:52:54.552Z,53.74
2019-05-05T07:53:54.664Z,52.20
2019-05-05T07:54:55.055Z,51.70
2019-05-05T07:55:54.176Z,52.01
2019-05-05T07:56:53.835Z,51.56
2019-05-05T07:57:53.823Z,50.74
2019-05-05T07:58:54.391Z,51.44
2019-05-05T07:59:54.005Z,51.68
2019-05-05T08:00:54.126Z,52.44
2019-05-05T08:01:54.691Z,52.66
2019-05-05T08:02:54.439Z,52.15
2019-05-05T08:03:53.864Z,52.61
2019-05-05T08:04:54.383Z,53.59
2019-05-05T08:05:54.396Z,54.52
2019-05-05T08:06:53.882Z,54.48
2019-05-05T08:07:53.934Z,53.36
2019-05-05T08:08:54.354Z,52.18
2019-05-05T08:09:53.751Z,53.07
2019-05-05T08:10:54.057Z,52.11
2019-05-05T08:11:54.024Z,51.75
2019-05-05T08:12:54.055Z,49.48
2019-05-05T08:13:51.932Z,48.69
2019-05-05T08:14:53.601Z,49.07
2019-05-05T08:15:57.507Z,49.07
2019-05-05T08:16:53.481Z,49.07
2019-05-05T08:17:51.623Z,49.05
2019-05-05T08:18:51.547Z,49.05
2019-05-05T08:19:51.479Z,49.05
2019-05-05T08:20:53.236Z,49.65
2019-05-05T08:21:51.323Z,47.22
2019-05-05T08:22:51.246Z,46.29
2019-05-05T08:23:51.171Z,46.60
2019-05-05T08:24:51.096Z,45.95
2019-05-05T08:25:51.024Z,45.16
2019-05-05T08:26:50.970Z,45.01
2019-05-05T08:27:50.868Z,44.06
2019-05-05T08:28:50.784Z,44.20
2019-05-05T08:29:50.709Z,46.29
2019-05-05T08:30:50.636Z,46.60
2019-05-05T08:31:50.564Z,46.53
2019-05-05T08:32:50.484Z,46.26
2019-05-05T08:33:50.424Z,45.61
2019-05-05T08:34:58.165Z,43.74
2019-05-05T08:35:50.260Z,40.85
2019-05-05T08:36:50.185Z,39.87
2019-05-05T08:37:50.111Z,41.50
2019-05-05T08:38:50.035Z,42.20
2019-05-05T08:39:49.961Z,42.58
2019-05-05T08:40:49.898Z,42.87
2019-05-05T08:41:49.823Z,42.00
2019-05-05T08:42:49.749Z,42.97
2019-05-05T08:43:49.673Z,43.94
2019-05-05T08:44:49.602Z,45.07
2019-05-05T08:45:49.524Z,45.40
2019-05-05T08:46:49.455Z,46.10
2019-05-05T08:47:49.375Z,48.85
2019-05-05T08:48:49.303Z,51.34
2019-05-05T08:49:49.224Z,51.36
2019-05-05T08:50:49.153Z,50.60
2019-05-05T08:51:49.075Z,51.61
2019-05-05T08:52:49.011Z,49.50
2019-05-05T08:53:48.925Z,49.36
2019-05-05T08:54:48.863Z,48.23
2019-05-05T08:55:48.786Z,46.29
2019-05-05T08:56:48.716Z,44.87
2019-05-05T08:57:48.637Z,44.68
2019-05-05T08:58:49.868Z,46.58
2019-05-05T08:59:48.500Z,45.93
2019-05-05T09:00:48.412Z,43.68
2019-05-05T09:01:48.337Z,43.85
2019-05-05T09:02:48.263Z,46.03
2019-05-05T09:03:48.188Z,46.46
2019-05-05T09:04:48.113Z,47.78
2019-05-05T09:05:48.038Z,49.69
2019-05-05T09:06:47.967Z,50.14
2019-05-05T09:07:47.890Z,50.38
2019-05-05T09:08:47.813Z,49.38
2019-05-05T09:09:47.729Z,48.73
2019-05-05T09:10:47.652Z,46.51
2019-05-05T09:11:47.582Z,46.55
2019-05-05T09:12:47.502Z,46.00
2019-05-05T09:13:47.428Z,44.66
2019-05-05T09:14:47.353Z,45.14
2019-05-05T09:15:47.280Z,44.95
2019-05-05T09:16:47.204Z,44.59
2019-05-05T09:17:47.128Z,43.05
2019-05-05T09:18:47.054Z,42.90
2019-05-05T09:19:46.978Z,42.73
2019-05-05T09:20:46.904Z,41.29
2019-05-05T09:21:46.828Z,41.27
2019-05-05T09:22:46.754Z,42.17
2019-05-05T09:23:59.032Z,44.33
2019-05-05T09:24:46.603Z,45.00
2019-05-05T09:25:46.528Z,46.53
2019-05-05T09:26:46.454Z,46.30
2019-05-05T09:27:46.381Z,44.76
2019-05-05T09:28:46.304Z,44.40
2019-05-05T09:29:46.228Z,44.06
2019-05-05T09:30:46.156Z,43.24
2019-05-05T09:31:46.080Z,44.03
2019-05-05T09:32:46.005Z,42.71
2019-05-05T09:33:45.929Z,41.22
2019-05-05T09:34:45.854Z,40.25
2019-05-05T09:35:45.787Z,40.70
2019-05-05T09:36:45.706Z,41.52
2019-05-05T09:37:45.630Z,41.09
2019-05-05T09:38:45.557Z,41.74
2019-05-05T09:39:45.484Z,42.77
2019-05-05T09:40:45.395Z,44.19
2019-05-05T09:41:45.330Z,45.01
2019-05-05T09:42:45.249Z,46.06
2019-05-05T09:43:45.168Z,47.20
2019-05-05T09:44:45.092Z,48.25
2019-05-05T09:45:45.018Z,48.61
2019-05-05T09:46:44.942Z,49.47
2019-05-05T09:47:45.044Z,50.49
2019-05-05T09:48:44.783Z,52.08
2019-05-05T09:49:44.778Z,52.29
2019-05-05T09:50:44.631Z,52.01
2019-05-05T09:51:44.556Z,52.03
2019-05-05T09:52:44.481Z,50.24
2019-05-05T09:53:44.830Z,48.61
2019-05-05T09:54:44.319Z,47.18
2019-05-05T09:55:44.493Z,47.94
2019-05-05T09:56:44.494Z,48.80
2019-05-05T09:57:44.089Z,47.73
2019-05-05T09:58:44.149Z,47.89
2019-05-05T09:59:44.284Z,48.16
2019-05-05T10:00:44.175Z,48.90
2019-05-05T10:01:44.515Z,49.73
2019-05-05T10:02:44.212Z,51.19
2019-05-05T10:03:44.691Z,52.12
2019-05-05T10:04:44.119Z,52.57
2019-05-05T10:05:43.465Z,53.05
2019-05-05T10:06:47.614Z,52.86
2019-05-05T10:07:44.053Z,52.86
2019-05-05T10:08:44.635Z,52.19
2019-05-05T10:09:43.765Z,51.23
2019-05-05T10:10:44.253Z,51.43
2019-05-05T10:11:44.793Z,51.64
2019-05-05T10:12:44.607Z,51.19
2019-05-05T10:13:44.241Z,49.28
2019-05-05T10:14:44.757Z,48.42
2019-05-05T10:15:44.316Z,46.42
2019-05-05T10:16:42.587Z,46.03
2019-05-05T10:17:42.515Z,47.30
2019-05-05T10:18:42.434Z,46.46
2019-05-05T10:19:43.932Z,47.61
2019-05-05T10:20:42.271Z,47.92
2019-05-05T10:21:44.197Z,47.63
2019-05-05T10:22:43.765Z,47.25
2019-05-05T10:23:43.610Z,46.30
2019-05-05T10:24:44.224Z,45.51
2019-05-05T10:25:41.871Z,45.51
2019-05-05T10:26:43.717Z,43.86
2019-05-05T10:27:47.371Z,43.95
2019-05-05T10:28:41.635Z,43.84
2019-05-05T10:29:41.561Z,43.91
2019-05-05T10:30:41.488Z,44.67
2019-05-05T10:31:43.539Z,45.34
2019-05-05T10:32:41.322Z,45.82
2019-05-05T10:33:41.237Z,46.11
2019-05-05T10:34:41.163Z,45.96
2019-05-05T10:35:41.087Z,44.81
2019-05-05T10:36:40.998Z,43.90
2019-05-05T10:37:40.927Z,43.66
2019-05-05T10:38:40.848Z,43.39
2019-05-05T10:39:40.762Z,40.44
2019-05-05T10:40:40.687Z,39.70
2019-05-05T10:41:40.605Z,38.83
2019-05-05T10:42:40.524Z,38.72
2019-05-05T10:43:40.450Z,40.06
2019-05-05T10:44:40.375Z,40.73
2019-05-05T10:45:40.288Z,41.52
2019-05-05T10:46:40.213Z,40.10
2019-05-05T10:47:40.137Z,40.02
2019-05-05T10:48:40.064Z,40.02
2019-05-05T10:49:39.975Z,40.14
2019-05-05T10:50:39.900Z,39.81
2019-05-05T10:51:39.825Z,39.23
2019-05-05T10:52:39.750Z,38.87
2019-05-05T10:53:39.676Z,39.16
2019-05-05T10:54:44.214Z,39.18
2019-05-05T10:55:39.525Z,37.85
2019-05-05T10:56:39.451Z,36.53
2019-05-05T10:57:39.375Z,35.97
2019-05-05T10:58:39.313Z,35.41
2019-05-05T10:59:39.228Z,34.23
2019-05-05T11:00:39.165Z,34.08
2019-05-05T11:01:39.077Z,34.86
2019-05-05T11:02:39.002Z,35.06
2019-05-05T11:03:38.927Z,34.21
2019-05-05T11:04:38.865Z,33.05
2019-05-05T11:05:38.788Z,32.26
2019-05-05T11:06:38.716Z,31.60
2019-05-05T11:07:38.670Z,32.09
2019-05-05T11:08:38.578Z,31.57
2019-05-05T11:09:38.502Z,32.33
2019-05-05T11:10:38.440Z,32.60
2019-05-05T11:11:38.365Z,31.93
2019-05-05T11:12:38.304Z,33.69
2019-05-05T11:13:38.233Z,34.79
2019-05-05T11:14:38.166Z,37.34
2019-05-05T11:15:38.096Z,39.03
2019-05-05T11:16:38.016Z,39.90
2019-05-05T11:17:37.941Z,40.38
2019-05-05T11:18:37.867Z,40.67
2019-05-05T11:19:37.803Z,41.24
2019-05-05T11:20:37.730Z,42.32
2019-05-05T11:21:37.653Z,42.14
2019-05-05T11:22:37.579Z,41.38
2019-05-05T11:23:37.503Z,41.17
2019-05-05T11:24:37.429Z,41.94
2019-05-05T11:25:37.355Z,41.15
2019-05-05T11:26:37.291Z,41.41
2019-05-05T11:27:37.225Z,41.87
2019-05-05T11:28:37.144Z,43.29
2019-05-05T11:29:37.067Z,43.69
2019-05-05T11:30:36.993Z,43.88
2019-05-05T11:31:36.918Z,44.38
2019-05-05T11:32:36.843Z,43.79
2019-05-05T11:33:36.755Z,43.02
2019-05-05T11:34:36.682Z,42.93
2019-05-05T11:35:36.608Z,43.79
2019-05-05T11:36:36.530Z,44.19
2019-05-05T11:37:36.455Z,43.90
2019-05-05T11:38:36.381Z,43.04
2019-05-05T11:39:36.305Z,42.73
2019-05-05T11:40:36.230Z,43.21
2019-05-05T11:41:36.155Z,43.21
2019-05-05T11:42:36.121Z,44.29
2019-05-05T11:43:35.994Z,43.62
2019-05-05T11:44:35.919Z,43.43
2019-05-05T11:45:35.844Z,42.66
2019-05-05T11:46:35.771Z,42.47
2019-05-05T11:47:35.694Z,43.44
2019-05-05T11:48:35.607Z,42.01
2019-05-05T11:49:35.535Z,40.61
2019-05-05T11:50:35.461Z,39.79
2019-05-05T11:51:35.384Z,39.03
2019-05-05T11:52:35.307Z,39.77
2019-05-05T11:53:35.245Z,38.98
2019-05-05T11:54:35.145Z,39.64
2019-05-05T11:55:35.072Z,40.42
2019-05-05T11:56:34.996Z,40.35
2019-05-05T11:57:34.921Z,39.97
2019-05-05T11:58:34.846Z,40.06
2019-05-05T11:59:34.770Z,39.03
2019-05-05T12:00:34.818Z,37.72
2019-05-05T12:01:34.620Z,36.97
2019-05-05T12:02:34.534Z,36.11
2019-05-05T12:03:37.447Z,34.31
2019-05-05T12:04:34.383Z,33.84
2019-05-05T12:05:34.308Z,32.87
2019-05-05T12:06:34.233Z,33.67
2019-05-05T12:07:34.281Z,33.48
2019-05-05T12:08:34.588Z,33.03
2019-05-05T12:09:34.008Z,32.18
2019-05-05T12:10:34.499Z,33.21
2019-05-05T12:11:34.503Z,33.84
2019-05-05T12:12:33.797Z,33.80
2019-05-05T12:13:33.722Z,35.11
2019-05-05T12:14:33.647Z,35.55
2019-05-05T12:15:34.110Z,36.63
2019-05-05T12:16:34.709Z,36.99
2019-05-05T12:17:33.535Z,36.53
2019-05-05T12:18:34.287Z,37.49
2019-05-05T12:19:33.648Z,38.01
2019-05-05T12:20:33.674Z,38.95
2019-05-05T12:21:33.777Z,39.87
2019-05-05T12:22:34.085Z,41.38
2019-05-05T12:23:34.048Z,41.82
2019-05-05T12:24:33.877Z,42.76
2019-05-05T12:25:32.836Z,43.88
2019-05-05T12:26:34.650Z,44.93
2019-05-05T12:27:33.872Z,45.98
2019-05-05T12:28:34.532Z,46.10
2019-05-05T12:29:33.694Z,45.12
2019-05-05T12:30:33.879Z,45.41
2019-05-05T12:31:33.965Z,45.22
2019-05-05T12:32:34.660Z,44.84
2019-05-05T12:33:33.642Z,44.62
2019-05-05T12:34:34.000Z,45.10
2019-05-05T12:35:33.926Z,45.20
2019-05-05T12:36:34.039Z,44.70
2019-05-05T12:37:34.012Z,44.31
2019-05-05T12:38:31.850Z,44.98
2019-05-05T12:39:33.470Z,44.41
2019-05-05T12:40:33.655Z,45.08
2019-05-05T12:41:31.613Z,44.70
2019-05-05T12:42:31.537Z,44.98
2019-05-05T12:43:31.463Z,45.87
2019-05-05T12:44:31.388Z,46.06
2019-05-05T12:45:31.301Z,44.98
2019-05-05T12:46:31.226Z,45.27
2019-05-05T12:47:31.151Z,44.91
2019-05-05T12:48:31.077Z,45.39
2019-05-05T12:49:30.988Z,44.84
2019-05-05T12:50:30.913Z,45.51
2019-05-05T12:51:30.839Z,44.26